Time;durP1;ratioP1;P1;durP2;ratioP2;P2;SDS_P1;SDS_P2;PMS_P1;PMS_P2;Temp;Humidity;BMP_temperature;BMP_pressure;BME280_temperature;BME280_humidity;BME280_pressure;Samples;Min_cycle;Max_cycle;Signal;HPM_P1;HPM_P2
2022/03/03 00:01:51;;;;;;;50.47;28.88;;;;;;;9.84;44.89;101674.19;5065405;28;20118;-64
2022/03/03 00:04:19;;;;;;;43.00;26.52;;;;;;;9.84;44.95;101676.81;5070868;28;20048;-63
2022/03/03 00:06:46;;;;;;;38.47;26.17;;;;;;;9.82;45.17;101676.00;5070514;28;20072;-63
2022/03/03 00:09:13;;;;;;;36.70;25.55;;;;;;;9.82;45.27;101669.91;5070950;28;20048;-64
2022/03/03 00:11:39;;;;;;;39.20;24.60;;;;;;;9.79;45.32;101660.41;5071142;28;20634;-63
2022/03/03 00:14:06;;;;;;;39.78;26.83;;;;;;;9.78;45.48;101672.63;5070891;28;20044;-63
2022/03/03 00:16:32;;;;;;;36.72;25.40;;;;;;;9.75;45.57;101675.41;5070484;28;20044;-63
2022/03/03 00:18:59;;;;;;;35.45;24.98;;;;;;;9.76;45.63;101678.84;5071237;28;20143;-63
2022/03/03 00:21:26;;;;;;;34.63;23.17;;;;;;;9.75;45.58;101672.78;5071151;28;20040;-63
2022/03/03 00:23:53;;;;;;;37.95;23.88;;;;;;;9.75;45.64;101677.13;5070239;28;20049;-63
2022/03/03 00:26:20;;;;;;;39.08;25.83;;;;;;;9.74;45.42;101673.69;5071276;28;20045;-65
2022/03/03 00:28:46;;;;;;;36.83;24.00;;;;;;;9.72;45.32;101677.28;5071380;28;20049;-65
2022/03/03 00:31:13;;;;;;;39.72;26.88;;;;;;;9.74;45.21;101672.84;5071569;28;20102;-63
2022/03/03 00:33:40;;;;;;;37.83;24.45;;;;;;;9.71;45.10;101670.31;5071196;28;20044;-65
2022/03/03 00:36:06;;;;;;;33.05;23.80;;;;;;;9.64;45.30;101673.16;5071578;28;20040;-63
2022/03/03 00:38:33;;;;;;;37.15;24.92;;;;;;;9.62;45.47;101672.38;5071189;28;20044;-63
2022/03/03 00:40:59;;;;;;;39.05;25.85;;;;;;;9.59;45.69;101669.88;5065890;28;20079;-64
2022/03/03 00:43:26;;;;;;;42.42;27.02;;;;;;;9.58;45.90;101668.16;5071587;28;20044;-63
2022/03/03 00:45:53;;;;;;;39.03;25.90;;;;;;;9.52;45.93;101667.53;5071225;28;20515;-65
2022/03/03 00:48:19;;;;;;;36.58;24.33;;;;;;;9.49;46.20;101665.88;5071473;28;20416;-63
2022/03/03 00:50:46;;;;;;;37.47;23.58;;;;;;;9.45;46.35;101669.53;5071090;28;20102;-63
2022/03/03 00:53:13;;;;;;;37.40;24.90;;;;;;;9.43;46.28;101656.50;5071196;28;20055;-64
2022/03/03 00:55:39;;;;;;;35.03;24.75;;;;;;;9.43;46.25;101663.50;5070385;28;20045;-65
2022/03/03 00:58:06;;;;;;;37.80;25.38;;;;;;;9.41;46.38;101660.09;5071110;28;20048;-64
2022/03/03 01:00:33;;;;;;;33.60;23.50;;;;;;;9.38;46.42;101654.94;5071312;28;20056;-64
2022/03/03 01:03:00;;;;;;;37.55;25.15;;;;;;;9.37;46.35;101663.72;5071196;28;20123;-63
2022/03/03 01:05:27;;;;;;;34.90;24.88;;;;;;;9.34;46.55;101656.81;5071436;28;20080;-63
2022/03/03 01:07:53;;;;;;;37.63;24.33;;;;;;;9.34;46.48;101663.84;5071070;28;20488;-63
2022/03/03 01:10:20;;;;;;;34.30;24.38;;;;;;;9.30;46.67;101661.31;5071170;28;20598;-63
2022/03/03 01:12:47;;;;;;;36.25;25.10;;;;;;;9.28;46.70;101655.28;5070106;28;20044;-63
2022/03/03 01:15:13;;;;;;;36.50;24.38;;;;;;;9.26;46.69;101656.25;5071112;28;20102;-63
2022/03/03 01:17:40;;;;;;;34.58;24.20;;;;;;;9.23;46.91;101649.38;5070823;28;20052;-63
2022/03/03 01:20:08;;;;;;;39.35;25.17;;;;;;;9.21;47.00;101655.56;5071149;28;20048;-65
2022/03/03 01:22:35;;;;;;;36.22;24.77;;;;;;;9.18;46.95;101653.06;5070436;28;20198;-63
2022/03/03 01:25:03;;;;;;;32.33;23.35;;;;;;;9.18;47.03;101648.69;5070059;28;20443;-64
2022/03/03 01:27:32;;;;;;;35.22;23.17;;;;;;;9.17;46.88;101652.22;5073701;28;20049;-64
2022/03/03 01:30:01;;;;;;;39.22;24.58;;;;;;;9.17;46.78;101646.97;5073382;28;20048;-63
2022/03/03 01:32:27;;;;;;;34.97;23.23;;;;;;;9.15;46.89;101644.41;5074538;28;20045;-63
2022/03/03 01:34:54;;;;;;;33.55;23.85;;;;;;;9.13;47.14;101637.53;5074363;28;20485;-64
2022/03/03 01:37:21;;;;;;;35.58;24.00;;;;;;;9.13;47.17;101640.16;5074584;28;20506;-63
2022/03/03 01:39:48;;;;;;;36.60;23.40;;;;;;;9.11;47.03;101639.34;5074286;28;20049;-63
2022/03/03 01:42:16;;;;;;;35.42;24.40;;;;;;;9.12;46.80;101635.81;5074637;28;20095;-64
2022/03/03 01:44:45;;;;;;;34.75;23.77;;;;;;;9.12;46.50;101633.19;5073256;28;20045;-63
2022/03/03 01:47:19;;;;;;;35.28;24.00;;;;;;;9.11;46.72;101629.69;5074466;28;20041;-64
2022/03/03 01:49:47;;;;;;;38.10;23.90;;;;;;;9.09;46.65;101626.31;5074452;28;20044;-63
2022/03/03 01:52:14;;;;;;;34.95;23.85;;;;;;;9.09;46.44;101622.81;5074449;28;20121;-63
2022/03/03 01:54:41;;;;;;;35.55;24.10;;;;;;;9.07;46.62;101622.03;5074173;28;20044;-63
2022/03/03 01:57:08;;;;;;;35.05;23.10;;;;;;;9.04;46.68;101614.28;5074220;28;20075;-63
2022/03/03 01:59:35;;;;;;;32.05;23.52;;;;;;;9.01;46.70;101612.63;5073874;28;20049;-63
2022/03/03 02:02:05;;;;;;;34.50;23.08;;;;;;;8.97;47.03;101611.03;5073248;28;20485;-65
2022/03/03 02:04:32;;;;;;;36.85;24.13;;;;;;;8.94;47.09;101606.75;5074074;28;20508;-65
2022/03/03 02:07:00;;;;;;;38.55;24.30;;;;;;;8.96;47.28;101611.94;5073978;28;20071;-63
2022/03/03 02:09:26;;;;;;;38.85;24.77;;;;;;;8.92;47.62;101599.88;5073942;28;20044;-65
2022/03/03 02:11:53;;;;;;;34.72;23.45;;;;;;;8.88;47.78;101596.50;5074183;28;20428;-64
2022/03/03 02:14:20;;;;;;;36.60;23.75;;;;;;;8.88;47.86;101598.28;5073825;28;20443;-63
2022/03/03 02:16:47;;;;;;;32.40;23.75;;;;;;;8.83;48.05;101594.03;5072908;28;20041;-63
2022/03/03 02:19:17;;;;;;;37.25;23.70;;;;;;;8.83;48.14;101596.66;5073790;28;20503;-65
2022/03/03 02:21:51;;;;;;;34.30;24.05;;;;;;;8.82;47.98;101594.97;5073027;28;20080;-63
2022/03/03 02:24:20;;;;;;;32.08;23.10;;;;;;;8.83;47.97;101601.88;5073327;28;20416;-64
2022/03/03 02:26:47;;;;;;;35.42;23.85;;;;;;;8.82;47.71;101591.47;5073539;28;20098;-64
2022/03/03 02:29:14;;;;;;;33.05;23.80;;;;;;;8.80;48.00;101595.94;5073669;28;20049;-63
2022/03/03 02:31:44;;;;;;;36.72;23.63;;;;;;;8.77;48.14;101588.19;5073400;28;20549;-63
2022/03/03 02:34:11;;;;;;;36.50;24.02;;;;;;;8.74;48.07;101583.91;5073802;28;20086;-63
2022/03/03 02:36:38;;;;;;;36.15;24.88;;;;;;;8.72;48.10;101580.47;5072535;28;20565;-65
2022/03/03 02:39:05;;;;;;;34.75;22.65;;;;;;;8.70;48.13;101590.16;5072289;28;20059;-62
2022/03/03 02:41:33;;;;;;;35.00;25.00;;;;;;;8.69;48.21;101585.00;5073450;28;20513;-63
2022/03/03 02:44:02;;;;;;;34.33;23.58;;;;;;;8.69;48.36;101585.00;5073489;28;20451;-65
2022/03/03 02:46:29;;;;;;;36.83;24.52;;;;;;;8.71;48.41;101580.53;5073582;28;20589;-65
2022/03/03 02:48:56;;;;;;;37.40;24.27;;;;;;;8.69;48.51;101577.16;5073048;28;20063;-63
2022/03/03 02:51:24;;;;;;;33.67;23.42;;;;;;;8.68;48.70;101567.59;5072661;28;20544;-64
2022/03/03 02:53:50;;;;;;;36.92;24.35;;;;;;;8.63;48.66;101570.34;5072969;28;20404;-65
2022/03/03 02:56:17;;;;;;;33.33;23.95;;;;;;;8.64;48.43;101570.28;5073214;28;20098;-63
2022/03/03 02:58:44;;;;;;;35.38;23.85;;;;;;;8.63;48.37;101572.97;5073225;28;20054;-63
2022/03/03 03:01:11;;;;;;;36.92;23.75;;;;;;;8.60;48.62;101568.69;5072929;28;20048;-63
2022/03/03 03:03:38;;;;;;;33.53;24.25;;;;;;;8.56;48.65;101568.84;5073048;28;20436;-64
2022/03/03 03:06:05;;;;;;;37.80;24.17;;;;;;;8.53;48.89;101567.19;5072969;28;20535;-63
2022/03/03 03:08:33;;;;;;;34.88;23.75;;;;;;;8.49;49.03;101576.06;5072072;28;20040;-64
2022/03/03 03:10:59;;;;;;;37.97;24.63;;;;;;;8.47;49.19;101572.66;5072734;28;20052;-63
2022/03/03 03:13:26;;;;;;;38.03;24.48;;;;;;;8.44;49.39;101573.59;5072889;28;20048;-66
2022/03/03 03:15:54;;;;;;;38.15;25.13;;;;;;;8.35;49.64;101568.66;5072790;28;20052;-63
2022/03/03 03:18:22;;;;;;;40.22;26.02;;;;;;;8.31;49.84;101561.81;5072534;28;20067;-63
2022/03/03 03:20:51;;;;;;;43.65;25.92;;;;;;;8.33;49.73;101560.88;5072356;28;20045;-63
2022/03/03 03:23:20;;;;;;;40.90;25.58;;;;;;;8.33;49.84;101560.88;5071464;28;20041;-63
2022/03/03 03:25:47;;;;;;;38.97;25.38;;;;;;;8.30;49.82;101552.25;5072515;28;20404;-65
2022/03/03 03:28:16;;;;;;;36.78;24.85;;;;;;;8.31;50.00;101554.81;5072520;28;20040;-64
2022/03/03 03:30:43;;;;;;;38.40;25.02;;;;;;;8.28;49.88;101543.63;5072649;28;20052;-63
2022/03/03 03:33:10;;;;;;;38.83;26.15;;;;;;;8.23;50.14;101545.53;5072489;28;20106;-63
2022/03/03 03:35:36;;;;;;;39.10;24.90;;;;;;;8.22;50.15;101551.69;5072184;28;20048;-63
2022/03/03 03:38:04;;;;;;;38.05;26.20;;;;;;;8.18;50.17;101537.84;5072295;28;20435;-64
2022/03/03 03:40:31;;;;;;;36.60;25.30;;;;;;;8.17;50.27;101531.75;5072228;28;20048;-63
2022/03/03 03:42:58;;;;;;;36.15;26.30;;;;;;;8.14;50.11;101537.09;5070993;28;20448;-63
2022/03/03 03:45:24;;;;;;;42.88;25.08;;;;;;;8.13;50.38;101526.72;5072241;28;20106;-65
2022/03/03 03:47:51;;;;;;;37.42;25.30;;;;;;;8.09;50.22;101531.19;5072149;28;20063;-63
2022/03/03 03:50:18;;;;;;;37.47;25.17;;;;;;;8.07;50.51;101537.38;5071976;28;20040;-63
2022/03/03 03:52:44;;;;;;;34.60;23.77;;;;;;;8.01;50.55;101527.94;5072096;28;20071;-63
2022/03/03 03:55:12;;;;;;;34.53;23.55;;;;;;;7.97;50.68;101528.97;5072223;28;20410;-63
2022/03/03 03:57:39;;;;;;;48.40;25.38;;;;;;;7.93;50.94;101538.66;5070951;28;20170;-63
2022/03/03 04:00:09;;;;;;;46.28;26.60;;;;;;;7.90;51.06;101532.66;5071930;28;20052;-63
2022/03/03 04:02:36;;;;;;;44.28;25.67;;;;;;;7.90;51.15;101524.84;5068594;28;20048;-63
2022/03/03 04:05:03;;;;;;;34.17;24.38;;;;;;;7.88;51.08;101522.28;5068369;28;20259;-63
2022/03/03 04:07:31;;;;;;;41.25;25.02;;;;;;;7.87;51.13;101530.19;5068108;28;20222;-62
2022/03/03 04:09:57;;;;;;;42.67;24.85;;;;;;;7.87;51.27;101524.94;5072188;28;20048;-64
2022/03/03 04:12:25;;;;;;;41.83;23.92;;;;;;;7.82;51.59;101528.56;5067547;28;20083;-63
2022/03/03 04:14:52;;;;;;;41.47;25.35;;;;;;;7.78;51.83;101524.34;5067083;28;20044;-64
2022/03/03 04:17:19;;;;;;;39.88;24.50;;;;;;;7.78;51.58;101523.47;5068248;28;20048;-64
2022/03/03 04:19:46;;;;;;;40.70;23.75;;;;;;;7.80;51.75;101524.31;5068041;28;20102;-64
2022/03/03 04:22:12;;;;;;;44.83;24.60;;;;;;;7.78;51.80;101523.47;5068342;28;20100;-64
2022/03/03 04:24:39;;;;;;;37.50;23.92;;;;;;;7.76;51.82;101522.69;5067981;28;20101;-63
2022/03/03 04:27:06;;;;;;;38.78;22.40;;;;;;;7.73;52.00;101518.41;5068151;28;20055;-63
2022/03/03 04:29:33;;;;;;;36.38;23.63;;;;;;;7.71;52.09;101517.63;5067534;28;20051;-64
2022/03/03 04:31:59;;;;;;;37.10;23.65;;;;;;;7.71;52.16;101515.00;5067627;28;20048;-64
2022/03/03 04:34:26;;;;;;;36.25;24.30;;;;;;;7.70;52.15;101518.50;5067954;28;20044;-63
2022/03/03 04:36:53;;;;;;;37.45;23.98;;;;;;;7.65;52.21;101518.66;5066325;28;20118;-65
2022/03/03 04:39:20;;;;;;;39.15;23.85;;;;;;;7.65;52.26;101517.81;5068117;28;20455;-64
2022/03/03 04:41:47;;;;;;;40.85;24.85;;;;;;;7.64;52.37;101508.25;5068238;28;20049;-64
2022/03/03 04:44:14;;;;;;;36.78;23.20;;;;;;;7.64;52.32;101511.75;5068239;28;20053;-64
2022/03/03 04:46:41;;;;;;;42.35;25.40;;;;;;;7.64;52.20;101514.34;5067286;28;20049;-64
2022/03/03 04:49:08;;;;;;;39.17;25.23;;;;;;;7.65;52.48;101513.41;5067864;28;20053;-65
2022/03/03 04:51:36;;;;;;;42.45;25.00;;;;;;;7.70;52.47;101510.69;5067905;28;20435;-64
2022/03/03 04:54:05;;;;;;;39.20;25.13;;;;;;;7.73;52.31;101501.88;5067510;28;20071;-64
2022/03/03 04:56:31;;;;;;;38.53;25.05;;;;;;;7.77;52.22;101504.34;5068109;28;20044;-65
2022/03/03 04:58:58;;;;;;;37.45;24.27;;;;;;;7.78;52.17;101503.47;5067531;28;20044;-64
2022/03/03 05:01:25;;;;;;;40.58;26.85;;;;;;;7.81;52.20;101502.50;5068846;28;20041;-65
2022/03/03 05:03:52;;;;;;;38.92;25.52;;;;;;;7.87;52.02;101504.03;5070832;28;20041;-63
2022/03/03 05:06:19;;;;;;;38.50;25.40;;;;;;;7.85;51.80;101499.72;5071456;28;20040;-64
2022/03/03 05:08:45;;;;;;;39.78;25.13;;;;;;;7.79;52.01;101493.84;5072014;28;20557;-63
2022/03/03 05:11:12;;;;;;;41.33;25.38;;;;;;;7.78;51.97;101499.97;5071493;28;20060;-65
2022/03/03 05:13:39;;;;;;;37.80;26.40;;;;;;;7.79;52.16;101499.06;5071680;28;20044;-63
2022/03/03 05:16:05;;;;;;;40.70;27.35;;;;;;;7.80;52.19;101499.00;5071760;28;20525;-64
2022/03/03 05:18:32;;;;;;;42.50;28.27;;;;;;;7.83;52.17;101508.50;5071626;28;20044;-63
2022/03/03 05:20:59;;;;;;;41.67;27.05;;;;;;;7.87;51.80;101506.66;5070519;28;20052;-64
2022/03/03 05:23:26;;;;;;;42.67;27.80;;;;;;;7.87;51.95;101506.66;5070808;28;20049;-64
2022/03/03 05:25:53;;;;;;;41.25;27.52;;;;;;;7.84;51.90;101503.22;5071488;28;20040;-64
2022/03/03 05:28:19;;;;;;;50.42;28.67;;;;;;;7.89;51.88;101507.47;5070940;28;20048;-64
2022/03/03 05:30:46;;;;;;;44.45;28.35;;;;;;;7.91;51.63;101503.03;5071316;28;20051;-63
2022/03/03 05:33:13;;;;;;;44.53;28.58;;;;;;;7.88;52.06;101505.75;5071450;28;20048;-63
2022/03/03 05:35:40;;;;;;;44.15;27.85;;;;;;;7.86;52.07;101508.44;5071058;28;20040;-63
2022/03/03 05:38:07;;;;;;;43.90;29.75;;;;;;;7.86;51.94;101511.03;5070449;28;20045;-63
2022/03/03 05:40:33;;;;;;;42.40;28.88;;;;;;;7.86;51.86;101503.19;5071108;28;20048;-63
2022/03/03 05:43:00;;;;;;;43.08;28.13;;;;;;;7.87;51.93;101507.50;5071059;28;20052;-63
2022/03/03 05:45:27;;;;;;;44.15;28.58;;;;;;;7.86;51.78;101513.66;5071090;28;20594;-64
2022/03/03 05:47:54;;;;;;;43.13;27.33;;;;;;;7.83;51.59;101500.66;5071424;28;20361;-63
2022/03/03 05:50:21;;;;;;;42.58;27.58;;;;;;;7.81;51.69;101511.19;5070958;28;20045;-63
2022/03/03 05:52:47;;;;;;;44.78;27.73;;;;;;;7.77;51.80;101508.72;5070631;28;20045;-63
2022/03/03 05:55:14;;;;;;;42.50;27.73;;;;;;;7.77;51.44;101514.81;5069423;28;20140;-63
2022/03/03 05:57:48;;;;;;;48.67;29.63;;;;;;;7.81;51.75;101508.56;5070907;28;20531;-65
2022/03/03 06:00:16;;;;;;;43.97;28.80;;;;;;;7.80;51.82;101517.31;5070785;28;20053;-63
2022/03/03 06:02:54;;;;;;;46.58;29.25;;;;;;;7.81;51.90;101523.41;5070023;28;20445;-63
2022/03/03 06:05:26;;;;;;;46.70;30.50;;;;;;;7.84;51.75;101524.13;5070328;28;20052;-67
2022/03/03 06:08:05;;;;;;;46.80;29.73;;;;;;;7.88;51.71;101527.50;5070101;28;20045;-62
2022/03/03 06:10:33;;;;;;;45.30;29.52;;;;;;;7.85;51.62;101540.69;5069420;28;20052;-62
2022/03/03 06:13:21;;;;;;;47.55;29.10;;;;;;;7.83;51.60;101542.47;5069170;28;20047;-67
2022/03/03 06:15:49;;;;;;;47.50;28.25;;;;;;;7.81;51.89;101544.31;5070299;28;20045;-62
2022/03/03 06:18:18;;;;;;;44.92;27.65;;;;;;;7.79;52.13;101551.31;5070171;28;20174;-62
2022/03/03 06:20:45;;;;;;;44.83;28.40;;;;;;;7.79;52.33;101546.09;5070900;28;20061;-65
2022/03/03 06:23:13;;;;;;;46.33;31.13;;;;;;;7.84;52.33;101549.41;5070345;28;20496;-62
2022/03/03 06:25:41;;;;;;;44.83;28.90;;;;;;;7.87;52.26;101543.25;5070513;28;20056;-61
2022/03/03 06:28:08;;;;;;;42.88;29.30;;;;;;;7.88;52.43;101544.94;5069554;28;20053;-61
2022/03/03 06:30:36;;;;;;;47.35;29.90;;;;;;;7.92;52.40;101551.78;5070465;28;20063;-61
2022/03/03 06:33:06;;;;;;;46.72;30.02;;;;;;;7.97;52.20;101553.34;5070393;28;20060;-62
2022/03/03 06:35:38;;;;;;;50.20;31.13;;;;;;;7.99;52.06;101548.91;5070210;28;20042;-61
2022/03/03 06:38:06;;;;;;;45.60;29.77;;;;;;;7.99;51.98;101541.06;5070309;28;20106;-62
2022/03/03 06:40:34;;;;;;;48.72;30.23;;;;;;;8.00;51.77;101542.78;5070392;28;20454;-61
2022/03/03 06:43:01;;;;;;;49.22;30.88;;;;;;;8.00;52.16;101541.94;5066534;28;20786;-64
2022/03/03 06:45:30;;;;;;;44.28;29.67;;;;;;;8.00;51.93;101550.63;5066496;28;20162;-67
2022/03/03 06:48:04;;;;;;;48.75;29.98;;;;;;;8.01;52.12;101551.47;5069987;28;20040;-65
2022/03/03 06:50:36;;;;;;;44.78;29.73;;;;;;;8.03;52.12;101548.84;5070033;28;20093;-62
2022/03/03 06:53:03;;;;;;;47.35;30.40;;;;;;;8.04;52.45;101560.97;5069730;28;20049;-69
2022/03/03 06:55:30;;;;;;;49.20;30.20;;;;;;;8.06;52.44;101565.25;5069220;28;20058;-62
2022/03/03 06:57:58;;;;;;;48.20;28.83;;;;;;;8.07;52.81;101558.28;5068025;28;20040;-61
2022/03/03 07:00:28;;;;;;;41.90;28.40;;;;;;;8.07;52.88;101569.56;5068736;28;20049;-63
2022/03/03 07:02:55;;;;;;;43.83;29.67;;;;;;;8.12;52.74;101564.19;5069248;28;20127;-62
2022/03/03 07:05:22;;;;;;;46.15;28.80;;;;;;;8.15;52.83;101570.19;5069720;28;20048;-62
2022/03/03 07:07:51;;;;;;;45.53;29.48;;;;;;;8.17;52.96;101576.19;5068950;28;20044;-64
2022/03/03 07:10:25;;;;;;;52.78;32.47;;;;;;;8.33;52.58;101576.56;5069574;28;20487;-65
2022/03/03 07:12:55;;;;;;;55.53;33.60;;;;;;;8.46;52.14;101578.78;5069027;28;20044;-63
2022/03/03 07:15:23;;;;;;;51.97;32.53;;;;;;;8.59;51.47;101574.81;5068465;28;20045;-62
2022/03/03 07:17:53;;;;;;;50.08;32.78;;;;;;;8.70;50.93;101574.47;5067774;28;20168;-63
2022/03/03 07:20:47;;;;;;;48.03;32.38;;;;;;;8.87;49.99;101573.84;5068455;28;20051;-63
2022/03/03 07:23:26;;;;;;;47.67;32.80;;;;;;;9.02;49.65;101579.47;5067095;28;20048;-62
2022/03/03 07:25:54;;;;;;;48.33;32.22;;;;;;;9.14;48.98;101579.84;5068167;28;20044;-67
2022/03/03 07:28:21;;;;;;;46.95;31.58;;;;;;;9.27;48.62;101579.41;5068138;28;20059;-63
2022/03/03 07:30:50;;;;;;;50.65;31.95;;;;;;;9.39;48.21;101576.28;5067447;28;20044;-66
2022/03/03 07:33:53;;;;;;;51.00;31.65;;;;;;;9.54;47.88;101574.84;5066925;28;20056;-63
2022/03/03 07:36:26;;;;;;;52.78;33.45;;;;;;;9.52;47.70;101575.84;5068051;28;20051;-63
2022/03/03 07:38:57;;;;;;;47.60;32.92;;;;;;;9.60;47.40;101571.16;5067665;28;20060;-62
2022/03/03 07:41:26;;;;;;;50.35;32.90;;;;;;;9.65;47.37;101563.97;5068916;28;20044;-69
2022/03/03 07:43:54;;;;;;;48.33;32.88;;;;;;;9.78;46.92;101569.56;5068157;28;20048;-63
2022/03/03 07:46:22;;;;;;;48.15;32.63;;;;;;;9.98;46.41;101560.91;5068129;28;20102;-65
2022/03/03 07:48:51;;;;;;;48.30;32.67;;;;;;;10.13;46.21;101567.25;5068610;28;20075;-62
2022/03/03 07:51:18;;;;;;;47.17;33.38;;;;;;;10.24;46.03;101564.22;5068071;28;20075;-63
2022/03/03 07:53:45;;;;;;;48.42;33.17;;;;;;;10.28;45.79;101561.41;5068623;28;20408;-63
2022/03/03 07:56:19;;;;;;;54.55;32.63;;;;;;;10.45;45.46;101558.06;5068717;28;20044;-62
2022/03/03 07:58:50;;;;;;;51.28;31.67;;;;;;;10.64;45.06;101566.91;5068393;28;20057;-63
2022/03/03 08:01:18;;;;;;;50.15;31.85;;;;;;;10.79;44.81;101563.63;5068384;28;20127;-63
2022/03/03 08:03:46;;;;;;;54.88;32.47;;;;;;;10.91;44.48;101570.94;5068388;28;20122;-68
2022/03/03 08:06:15;;;;;;;49.55;32.05;;;;;;;11.06;44.11;101568.56;5067615;28;20040;-62
2022/03/03 08:08:44;;;;;;;52.00;32.15;;;;;;;11.23;43.84;101579.13;5068390;28;20037;-63
2022/03/03 08:11:11;;;;;;;53.40;33.42;;;;;;;11.34;43.43;101559.38;5068471;28;20048;-62
2022/03/03 08:13:38;;;;;;;57.45;34.45;;;;;;;11.44;43.19;101565.94;5068419;28;20041;-64
2022/03/03 08:16:05;;;;;;;54.60;33.72;;;;;;;11.57;42.75;101559.16;5068529;28;20060;-63
2022/03/03 08:18:36;;;;;;;50.67;31.98;;;;;;;11.67;42.40;101550.81;5068157;28;20480;-62
2022/03/03 08:21:05;;;;;;;46.55;31.42;;;;;;;11.76;42.12;101556.50;5068464;28;20052;-63
2022/03/03 08:23:32;;;;;;;52.90;32.92;;;;;;;11.88;41.44;101552.44;5067641;28;20048;-63
2022/03/03 08:26:00;;;;;;;50.42;30.88;;;;;;;11.96;41.23;101549.47;5066206;28;20044;-62
2022/03/03 08:28:28;;;;;;;47.70;32.55;;;;;;;12.08;40.99;101546.19;5067976;28;20492;-67
2022/03/03 08:31:06;;;;;;;48.45;32.75;;;;;;;12.19;40.63;101547.44;5067949;28;20053;-62
2022/03/03 08:33:52;;;;;;;52.60;32.42;;;;;;;12.34;40.27;101557.22;5067822;28;20481;-63
2022/03/03 08:36:22;;;;;;;50.58;31.85;;;;;;;12.35;40.27;101552.78;5067440;28;20458;-64
2022/03/03 08:38:53;;;;;;;48.95;33.33;;;;;;;12.41;39.98;101555.94;5067545;28;20558;-69
2022/03/03 08:41:22;;;;;;;50.70;33.33;;;;;;;12.62;39.60;101549.66;5068109;28;20045;-69
2022/03/03 08:43:52;;;;;;;50.17;32.88;;;;;;;12.75;39.41;101550.72;5067108;28;20515;-63
2022/03/03 08:46:24;;;;;;;50.13;33.05;;;;;;;12.91;38.99;101548.09;5067998;28;20045;-67
2022/03/03 08:48:53;;;;;;;49.58;31.73;;;;;;;13.07;38.74;101538.44;5067691;28;20044;-62
2022/03/03 08:51:19;;;;;;;54.28;32.47;;;;;;;13.20;38.66;101529.88;5068048;28;20401;-63
2022/03/03 08:53:46;;;;;;;44.70;31.50;;;;;;;13.35;38.26;101526.38;5067771;28;20057;-64
2022/03/03 08:56:14;;;;;;;46.70;31.30;;;;;;;13.47;37.90;101518.75;5068000;28;20064;-63
2022/03/03 08:58:40;;;;;;;42.67;30.02;;;;;;;13.68;37.29;101524.59;5067971;28;20045;-64
2022/03/03 09:01:07;;;;;;;46.20;30.88;;;;;;;13.84;37.14;101528.06;5066716;28;20796;-63
2022/03/03 09:03:35;;;;;;;42.33;30.75;;;;;;;13.96;36.87;101526.47;5067771;28;20052;-65
2022/03/03 09:06:02;;;;;;;44.45;31.38;;;;;;;14.12;36.09;101521.16;5067744;28;20504;-64
2022/03/03 09:08:29;;;;;;;49.35;31.45;;;;;;;14.35;35.74;101525.06;5067939;28;20048;-63
2022/03/03 09:10:56;;;;;;;50.08;33.20;;;;;;;14.24;35.79;101518.75;5067591;28;20041;-63
2022/03/03 09:13:22;;;;;;;47.60;34.00;;;;;;;14.27;35.59;101516.78;5067710;28;20041;-65
2022/03/03 09:15:51;;;;;;;55.13;34.78;;;;;;;14.55;35.07;101525.66;5067876;28;20041;-62
2022/03/03 09:18:18;;;;;;;49.13;35.15;;;;;;;14.65;34.61;101525.97;5066506;28;20044;-65
2022/03/03 09:20:44;;;;;;;48.47;35.45;;;;;;;14.82;34.54;101533.69;5067546;28;20059;-68
2022/03/03 09:23:11;;;;;;;49.00;35.13;;;;;;;15.01;34.16;101528.13;5067252;28;20044;-63
2022/03/03 09:25:39;;;;;;;52.20;35.13;;;;;;;15.12;34.24;101527.44;5067893;28;20048;-62
2022/03/03 09:28:06;;;;;;;47.85;34.50;;;;;;;15.35;34.02;101522.50;5067622;28;20055;-68
2022/03/03 09:30:32;;;;;;;50.67;36.42;;;;;;;15.55;33.81;101515.88;5067751;28;20106;-62
2022/03/03 09:32:59;;;;;;;54.22;35.95;;;;;;;15.71;33.48;101512.25;5067361;28;20060;-62
2022/03/03 09:35:26;;;;;;;54.25;36.70;;;;;;;15.84;33.63;101507.84;5066690;28;20094;-62
2022/03/03 09:37:53;;;;;;;55.63;36.67;;;;;;;15.89;33.23;101503.09;5067176;28;20072;-64
2022/03/03 09:40:20;;;;;;;49.17;36.72;;;;;;;15.82;33.31;101496.50;5067522;28;20052;-63
2022/03/03 09:43:02;;;;;;;51.40;36.50;;;;;;;16.01;32.40;101501.44;5067157;28;20451;-66
2022/03/03 09:45:29;;;;;;;56.08;36.92;;;;;;;16.16;32.44;101504.84;5067321;28;20547;-65
2022/03/03 09:47:58;;;;;;;55.05;38.55;;;;;;;16.14;32.07;101491.72;5069549;28;20053;-63
2022/03/03 09:50:26;;;;;;;53.55;38.60;;;;;;;16.32;31.94;101492.22;5070261;28;20040;-63
2022/03/03 09:52:54;;;;;;;52.90;37.78;;;;;;;16.51;31.87;101476.88;5057028;28;20063;-63
2022/03/03 09:55:22;;;;;;;54.05;36.63;;;;;;;16.68;31.75;101473.88;5070855;28;20098;-69
2022/03/03 09:57:49;;;;;;;54.10;37.33;;;;;;;16.77;31.49;101482.97;5070774;28;20086;-63
2022/03/03 10:00:17;;;;;;;55.85;39.95;;;;;;;16.89;31.06;101475.97;5070759;28;20052;-63
2022/03/03 10:03:08;;;;;;;57.35;43.25;;;;;;;17.01;31.20;101476.91;5070493;28;20072;-62
2022/03/03 10:05:39;;;;;;;56.80;38.97;;;;;;;17.01;31.17;101479.56;5070869;28;20044;-63
2022/03/03 10:08:08;;;;;;;51.92;37.60;;;;;;;17.22;30.99;101469.22;5069802;28;20353;-68
2022/03/03 10:10:40;;;;;;;49.90;38.25;;;;;;;17.19;30.67;101467.63;5070686;28;20105;-63
2022/03/03 10:13:07;;;;;;;51.88;38.13;;;;;;;17.29;30.52;101466.00;5070686;28;20449;-66
2022/03/03 10:15:35;;;;;;;52.85;36.63;;;;;;;17.46;30.07;101464.72;5070797;28;20072;-65
2022/03/03 10:18:07;;;;;;;52.83;37.60;;;;;;;17.55;29.85;101457.88;5070562;28;20583;-69
2022/03/03 10:21:02;;;;;;;46.15;33.97;;;;;;;17.63;29.34;101450.19;5070721;28;20045;-64
2022/03/03 10:23:34;;;;;;;48.75;35.85;;;;;;;17.63;29.07;101447.53;5068938;28;20056;-68
2022/03/03 10:26:04;;;;;;;51.15;36.67;;;;;;;17.81;29.22;101448.91;5070574;28;20074;-63
2022/03/03 10:28:34;;;;;;;47.67;35.67;;;;;;;18.03;29.11;101449.00;5069909;28;20567;-63
2022/03/03 10:31:13;;;;;;;47.30;34.08;;;;;;;18.19;28.70;101447.81;5070553;28;20106;-63
2022/03/03 10:33:44;;;;;;;66.90;43.03;;;;;;;17.99;28.96;101444.03;5070128;28;20052;-65
2022/03/03 10:36:14;;;;;;;45.72;34.33;;;;;;;18.08;28.14;101440.66;5070358;28;20048;-65
2022/03/03 10:38:56;;;;;;;46.10;33.92;;;;;;;18.23;27.93;101435.97;5069712;28;20041;-63
2022/03/03 10:41:29;;;;;;;46.75;32.88;;;;;;;18.39;27.70;101433.81;5069279;28;20062;-63
2022/03/03 10:43:57;;;;;;;47.63;32.28;;;;;;;18.47;27.54;101429.69;5070020;28;20052;-65
2022/03/03 10:46:24;;;;;;;45.83;34.55;;;;;;;18.52;27.24;101425.69;5070202;28;20135;-65
2022/03/03 10:48:51;;;;;;;47.33;35.85;;;;;;;18.46;27.53;101420.88;5064637;28;20045;-63
2022/03/03 10:51:19;;;;;;;46.22;35.15;;;;;;;18.59;27.22;101418.09;5069946;28;20045;-64
2022/03/03 10:53:45;;;;;;;52.63;36.00;;;;;;;18.55;27.56;101406.88;5069367;28;20048;-66
2022/03/03 10:56:18;;;;;;;49.97;35.42;;;;;;;18.75;27.39;101409.72;5068458;28;20122;-63
2022/03/03 10:58:50;;;;;;;45.20;34.30;;;;;;;19.00;27.40;101399.78;5068749;28;20484;-63
2022/03/03 11:01:20;;;;;;;46.95;35.00;;;;;;;19.09;27.25;101383.88;5069803;28;20415;-63
2022/03/03 11:03:50;;;;;;;49.65;35.80;;;;;;;19.20;27.43;101379.53;5069775;28;20159;-63
2022/03/03 11:06:20;;;;;;;43.88;33.67;;;;;;;19.09;27.39;101385.72;5051678;28;20136;-62
2022/03/03 11:08:48;;;;;;;45.67;33.38;;;;;;;19.29;26.87;101364.56;5069663;28;20053;-66
2022/03/03 11:11:15;;;;;;;47.35;33.88;;;;;;;19.29;26.78;101376.09;5069754;28;20056;-62
2022/03/03 11:13:44;;;;;;;44.67;32.70;;;;;;;19.29;26.85;101365.44;5067369;28;20041;-68
2022/03/03 11:16:11;;;;;;;44.85;33.03;;;;;;;19.47;26.42;101362.22;5069290;28;20048;-63
2022/03/03 11:18:38;;;;;;;44.55;33.40;;;;;;;19.35;26.52;101361.41;5069359;28;20582;-63
2022/03/03 11:21:05;;;;;;;44.58;33.25;;;;;;;19.41;26.48;101359.09;5069318;28;20170;-68